createdAt,value
2023-01-07T00:01:44.584Z,8.90
2023-01-07T00:04:16.295Z,8.90
2023-01-07T00:06:47.228Z,8.90
2023-01-07T00:09:17.449Z,8.90
2023-01-07T00:11:46.477Z,8.80
2023-01-07T00:14:15.556Z,8.80
2023-01-07T00:16:44.279Z,8.80
2023-01-07T00:19:16.994Z,8.80
2023-01-07T00:21:44.979Z,8.80
2023-01-07T00:24:13.690Z,8.80
2023-01-07T00:26:42.111Z,8.80
2023-01-07T00:29:10.554Z,8.80
2023-01-07T00:31:41.371Z,8.90
2023-01-07T00:34:10.482Z,8.80
2023-01-07T00:36:43.317Z,8.90
2023-01-07T00:39:15.346Z,8.80
2023-01-07T00:42:06.265Z,8.80
2023-01-07T00:44:35.311Z,8.80
2023-01-07T00:47:03.548Z,8.80
2023-01-07T00:49:31.561Z,8.80
2023-01-07T00:52:00.860Z,8.90
2023-01-07T00:54:29.234Z,8.90
2023-01-07T00:56:57.149Z,8.90
2023-01-07T00:59:25.151Z,8.90
2023-01-07T01:01:53.161Z,8.90
2023-01-07T01:04:21.219Z,8.90
2023-01-07T01:06:49.142Z,8.80
2023-01-07T01:09:20.651Z,8.90
2023-01-07T01:11:48.680Z,8.80
2023-01-07T01:14:16.851Z,8.80
2023-01-07T01:16:47.087Z,8.70
2023-01-07T01:19:15.109Z,8.80
2023-01-07T01:21:43.049Z,8.80
2023-01-07T01:24:11.381Z,8.80
2023-01-07T01:26:40.624Z,8.80
2023-01-07T01:29:08.574Z,8.90
2023-01-07T01:31:36.612Z,8.80
2023-01-07T01:34:05.716Z,8.80
2023-01-07T01:36:35.247Z,8.70
2023-01-07T01:39:04.889Z,8.70
2023-01-07T01:41:35.349Z,8.70
2023-01-07T01:44:42.351Z,8.70
2023-01-07T01:47:23.151Z,8.70
2023-01-07T01:50:00.172Z,8.70
2023-01-07T01:52:38.637Z,8.70
2023-01-07T01:55:10.236Z,8.70
2023-01-07T01:57:39.695Z,8.70
2023-01-07T02:00:12.707Z,8.70
2023-01-07T02:02:54.443Z,8.80
2023-01-07T02:05:22.741Z,8.80
2023-01-07T02:07:50.648Z,8.70
2023-01-07T02:10:23.084Z,8.80
2023-01-07T02:13:20.827Z,8.80
2023-01-07T02:16:00.394Z,8.80
2023-01-07T02:18:50.538Z,8.80
2023-01-07T02:21:39.713Z,8.90
2023-01-07T02:25:00.379Z,8.90
2023-01-07T02:27:56.264Z,8.80
2023-01-07T02:31:12.222Z,8.80
2023-01-07T02:33:54.877Z,8.80
2023-01-07T02:36:49.876Z,8.80
2023-01-07T02:39:49.002Z,8.80
2023-01-07T02:42:26.632Z,8.80
2023-01-07T02:45:05.648Z,8.80
2023-01-07T02:47:39.678Z,8.80
2023-01-07T02:50:10.315Z,8.80
2023-01-07T02:52:38.314Z,8.80
2023-01-07T02:55:12.777Z,8.90
2023-01-07T02:58:18.381Z,8.80
2023-01-07T03:01:21.592Z,8.80
2023-01-07T03:04:27.177Z,8.80
2023-01-07T03:07:20.900Z,8.80
2023-01-07T03:10:01.572Z,8.80
2023-01-07T03:12:35.809Z,8.80
2023-01-07T03:15:12.578Z,8.80
2023-01-07T03:17:49.501Z,8.80
2023-01-07T03:20:20.559Z,8.80
2023-01-07T03:22:51.536Z,8.80
2023-01-07T03:25:22.578Z,8.80
2023-01-07T03:27:55.005Z,8.80
2023-01-07T03:30:26.071Z,8.80
2023-01-07T03:33:02.436Z,8.80
2023-01-07T03:35:35.111Z,8.80
2023-01-07T03:38:07.186Z,8.80
2023-01-07T03:40:37.128Z,8.90
2023-01-07T03:43:04.401Z,8.90
2023-01-07T03:45:32.627Z,8.90
2023-01-07T03:48:01.403Z,8.80
2023-01-07T03:50:37.096Z,8.80
2023-01-07T03:53:06.397Z,8.90
2023-01-07T03:55:36.781Z,8.80
2023-01-07T03:58:05.047Z,8.80
2023-01-07T04:00:32.980Z,8.80
2023-01-07T04:03:11.486Z,8.90
2023-01-07T04:05:42.955Z,8.90
2023-01-07T04:08:13.353Z,8.80
2023-01-07T04:10:42.300Z,8.80
2023-01-07T04:13:10.675Z,8.80
2023-01-07T04:15:39.144Z,8.80
2023-01-07T04:18:07.208Z,8.80
2023-01-07T04:20:35.153Z,8.80
2023-01-07T04:23:03.097Z,8.80
2023-01-07T04:25:34.467Z,8.80
2023-01-07T04:28:05.916Z,8.80
2023-01-07T04:30:34.176Z,8.80
2023-01-07T04:33:02.590Z,8.80
2023-01-07T04:35:30.856Z,8.80
2023-01-07T04:37:59.503Z,8.80
2023-01-07T04:40:27.777Z,8.80
2023-01-07T04:42:57.586Z,8.80
2023-01-07T04:45:25.693Z,8.80
2023-01-07T04:47:56.932Z,8.70
2023-01-07T04:50:25.669Z,8.70
2023-01-07T04:52:53.892Z,8.70
2023-01-07T04:55:23.395Z,8.70
2023-01-07T04:57:51.919Z,8.70
2023-01-07T05:00:21.453Z,8.70
2023-01-07T05:02:51.829Z,8.70
2023-01-07T05:05:19.865Z,8.60
2023-01-07T05:07:49.002Z,8.60
2023-01-07T05:10:18.902Z,8.60
2023-01-07T05:12:47.057Z,8.60
2023-01-07T05:15:17.109Z,8.60
2023-01-07T05:17:46.388Z,8.60
2023-01-07T05:20:15.418Z,8.60
2023-01-07T05:22:43.353Z,8.60
2023-01-07T05:25:11.570Z,8.60
2023-01-07T05:27:39.906Z,8.60
2023-01-07T05:30:11.239Z,8.60
2023-01-07T05:32:39.177Z,8.60
2023-01-07T05:35:09.651Z,8.60
2023-01-07T05:37:37.757Z,8.50
2023-01-07T05:40:08.755Z,8.50
2023-01-07T05:42:37.426Z,8.50
2023-01-07T05:45:07.431Z,8.60
2023-01-07T05:47:35.342Z,8.60
2023-01-07T05:50:03.249Z,8.60
2023-01-07T05:52:32.482Z,8.60
2023-01-07T05:55:00.340Z,8.60
2023-01-07T05:57:28.209Z,8.60
2023-01-07T05:59:56.099Z,8.60
2023-01-07T06:02:24.056Z,8.60
2023-01-07T06:04:52.117Z,8.60
2023-01-07T06:07:20.063Z,8.60
2023-01-07T06:09:49.261Z,8.60
2023-01-07T06:12:17.171Z,8.60
2023-01-07T06:14:45.032Z,8.60
2023-01-07T06:17:12.916Z,8.60
2023-01-07T06:19:40.827Z,8.60
2023-01-07T06:22:08.805Z,8.60
2023-01-07T06:24:37.000Z,8.50
2023-01-07T06:27:06.207Z,8.50
2023-01-07T06:29:34.159Z,8.60
2023-01-07T06:32:02.149Z,8.60
2023-01-07T06:34:30.034Z,8.60
2023-01-07T06:36:57.966Z,8.60
2023-01-07T06:39:25.833Z,8.60
2023-01-07T06:41:53.762Z,8.60
2023-01-07T06:44:22.994Z,8.70
2023-01-07T06:46:50.955Z,8.70
2023-01-07T06:49:18.852Z,8.60
2023-01-07T06:51:46.772Z,8.60
2023-01-07T06:54:14.852Z,8.70
2023-01-07T06:56:42.750Z,8.60
2023-01-07T06:59:11.341Z,8.70
2023-01-07T07:01:40.699Z,8.70
2023-01-07T07:04:08.600Z,8.70
2023-01-07T07:06:36.535Z,8.70
2023-01-07T07:09:04.700Z,8.70
2023-01-07T07:11:32.793Z,8.70
2023-01-07T07:14:00.809Z,8.70
2023-01-07T07:16:30.210Z,8.70
2023-01-07T07:19:00.417Z,8.70
2023-01-07T07:21:28.307Z,8.70
2023-01-07T07:23:56.180Z,8.70
2023-01-07T07:26:24.068Z,8.60
2023-01-07T07:28:51.935Z,8.60
2023-01-07T07:31:19.882Z,8.60
2023-01-07T07:33:47.802Z,8.60
2023-01-07T07:36:17.022Z,8.60
2023-01-07T07:38:45.047Z,8.60
2023-01-07T07:41:13.107Z,8.60
2023-01-07T07:43:40.980Z,8.50
2023-01-07T07:46:08.919Z,8.50
2023-01-07T07:48:36.859Z,8.50
2023-01-07T07:51:04.987Z,8.60
2023-01-07T07:53:34.251Z,8.60
2023-01-07T07:56:02.122Z,8.60
2023-01-07T07:58:30.130Z,8.60
2023-01-07T08:00:58.130Z,8.60
2023-01-07T08:03:26.095Z,8.70
2023-01-07T08:05:54.027Z,8.70
2023-01-07T08:08:22.055Z,8.60
2023-01-07T08:10:51.347Z,8.60
2023-01-07T08:13:19.320Z,8.60
2023-01-07T08:15:48.285Z,8.60
2023-01-07T08:18:16.248Z,8.70
2023-01-07T08:20:44.117Z,8.70
2023-01-07T08:23:12.004Z,8.70
2023-01-07T08:25:39.987Z,8.70
2023-01-07T08:28:11.689Z,8.70
2023-01-07T08:30:40.304Z,8.70
2023-01-07T08:33:09.543Z,8.70
2023-01-07T08:35:37.541Z,8.70
2023-01-07T08:38:08.315Z,8.70
2023-01-07T08:40:37.560Z,8.70
2023-01-07T08:43:09.200Z,8.80
2023-01-07T08:45:37.609Z,8.80
2023-01-07T08:48:06.691Z,8.80
2023-01-07T08:50:35.611Z,8.80
2023-01-07T08:53:03.604Z,8.80
2023-01-07T08:55:31.537Z,8.80
2023-01-07T08:57:59.617Z,8.80
2023-01-07T09:00:28.955Z,8.80
2023-01-07T09:02:56.890Z,8.90
2023-01-07T09:05:24.893Z,8.90
2023-01-07T09:07:54.262Z,8.90
2023-01-07T09:10:22.671Z,8.90
2023-01-07T09:12:51.135Z,8.90
2023-01-07T09:15:19.217Z,8.90
2023-01-07T09:17:48.799Z,8.90
2023-01-07T09:20:16.914Z,8.90
2023-01-07T09:22:45.208Z,9.00
2023-01-07T09:25:13.135Z,9.00
2023-01-07T09:27:42.321Z,9.00
2023-01-07T09:30:11.648Z,9.00
2023-01-07T09:32:39.630Z,9.00
2023-01-07T09:35:10.096Z,9.10
2023-01-07T09:37:38.382Z,9.10
2023-01-07T09:40:09.877Z,9.10
2023-01-07T09:42:49.454Z,9.10
2023-01-07T09:45:24.078Z,9.10
2023-01-07T09:47:57.245Z,9.20
2023-01-07T09:50:43.943Z,9.20
2023-01-07T09:53:18.865Z,9.30
2023-01-07T09:56:11.052Z,9.30
2023-01-07T09:58:43.844Z,9.30
2023-01-07T10:01:27.596Z,9.30
2023-01-07T10:04:11.404Z,9.30
2023-01-07T10:06:51.308Z,9.30
2023-01-07T10:09:35.522Z,9.30
2023-01-07T10:12:17.908Z,9.30
2023-01-07T10:15:12.306Z,9.30
2023-01-07T10:18:06.123Z,9.20
2023-01-07T10:20:44.425Z,9.20
2023-01-07T10:23:21.573Z,9.10
2023-01-07T10:25:53.733Z,9.10
2023-01-07T10:28:28.860Z,9.20
2023-01-07T10:30:57.554Z,9.20
2023-01-07T10:33:29.342Z,9.20
2023-01-07T10:36:07.207Z,9.20
2023-01-07T10:38:43.369Z,9.20
2023-01-07T10:41:19.079Z,9.30
2023-01-07T10:44:08.791Z,9.30
2023-01-07T10:47:00.427Z,9.30
2023-01-07T10:49:57.998Z,9.30
2023-01-07T10:52:40.996Z,9.30
2023-01-07T10:55:35.852Z,9.30
2023-01-07T10:58:04.702Z,9.40
2023-01-07T11:00:33.865Z,9.40
2023-01-07T11:03:01.937Z,9.40
2023-01-07T11:05:38.829Z,9.40
2023-01-07T11:08:14.689Z,9.40
2023-01-07T11:10:44.095Z,9.50
2023-01-07T11:13:19.906Z,9.50
2023-01-07T11:15:54.463Z,9.50
2023-01-07T11:18:26.986Z,9.50
2023-01-07T11:20:57.535Z,9.60
2023-01-07T11:23:36.354Z,9.60
2023-01-07T11:26:17.697Z,9.60
2023-01-07T11:28:53.842Z,9.60
2023-01-07T11:31:25.066Z,9.60
2023-01-07T11:34:03.464Z,9.60
2023-01-07T11:36:43.106Z,9.60
2023-01-07T11:39:13.021Z,9.60
2023-01-07T11:41:54.919Z,9.60
2023-01-07T11:44:23.237Z,9.60
2023-01-07T11:46:52.070Z,9.60
2023-01-07T11:49:28.531Z,9.60
2023-01-07T11:51:57.705Z,9.60
2023-01-07T11:54:28.567Z,9.60
2023-01-07T11:57:14.169Z,9.60
2023-01-07T11:59:42.096Z,9.60
2023-01-07T12:02:26.904Z,9.60
2023-01-07T12:05:22.029Z,9.60
2023-01-07T12:07:52.302Z,9.60
2023-01-07T12:10:32.022Z,9.60
2023-01-07T12:13:05.232Z,9.60
2023-01-07T12:15:39.942Z,9.60
2023-01-07T12:18:33.238Z,9.60
2023-01-07T12:21:35.899Z,9.50
2023-01-07T12:24:50.460Z,9.60
2023-01-07T12:27:32.853Z,9.60
2023-01-07T12:30:27.775Z,9.60
2023-01-07T12:33:13.238Z,9.60
2023-01-07T12:35:45.114Z,9.60
2023-01-07T12:38:19.763Z,9.50
2023-01-07T12:40:54.169Z,9.50
2023-01-07T12:43:31.638Z,9.60
2023-01-07T12:46:05.156Z,9.60
2023-01-07T12:48:41.665Z,9.60
2023-01-07T12:51:18.990Z,9.60
2023-01-07T12:53:53.983Z,9.50
2023-01-07T12:56:28.412Z,9.60
2023-01-07T12:59:03.936Z,9.60
2023-01-07T13:01:40.994Z,9.50
2023-01-07T13:04:23.087Z,9.60
2023-01-07T13:06:58.457Z,9.60
2023-01-07T13:09:34.755Z,9.60
2023-01-07T13:12:42.313Z,9.50
2023-01-07T13:15:22.212Z,9.50
2023-01-07T13:17:54.501Z,9.50
2023-01-07T13:20:56.029Z,9.50
2023-01-07T13:23:32.533Z,9.50
2023-01-07T13:26:21.395Z,9.50
2023-01-07T13:29:32.482Z,9.50
2023-01-07T13:32:57.153Z,9.50
2023-01-07T13:35:49.807Z,9.50
2023-01-07T13:38:51.083Z,9.50
2023-01-07T13:41:48.919Z,9.50
2023-01-07T13:44:44.769Z,9.50
2023-01-07T13:47:17.105Z,9.50
2023-01-07T13:49:56.553Z,9.50
2023-01-07T13:52:30.980Z,9.40
2023-01-07T13:55:06.624Z,9.40
2023-01-07T13:57:46.644Z,9.40
2023-01-07T14:00:45.441Z,9.40
2023-01-07T14:03:35.488Z,9.40
2023-01-07T14:06:39.065Z,9.40
2023-01-07T14:09:38.272Z,9.30
2023-01-07T14:13:12.920Z,9.30
2023-01-07T14:16:07.690Z,9.30
2023-01-07T14:19:11.804Z,9.30
2023-01-07T14:22:06.689Z,9.30
2023-01-07T14:25:24.553Z,9.30
2023-01-07T14:28:18.065Z,9.30
2023-01-07T14:30:49.279Z,9.30
2023-01-07T14:33:22.752Z,9.40
2023-01-07T14:35:58.219Z,9.40
2023-01-07T14:39:30.354Z,9.40
2023-01-07T14:42:50.217Z,9.40
2023-01-07T14:45:54.407Z,9.40
2023-01-07T14:48:32.865Z,9.40
2023-01-07T14:51:37.174Z,9.30
2023-01-07T14:54:40.500Z,9.30
2023-01-07T14:57:24.111Z,9.30
2023-01-07T15:00:29.407Z,9.20
2023-01-07T15:03:40.509Z,9.20
2023-01-07T15:06:31.787Z,9.20
2023-01-07T15:09:27.310Z,9.20
2023-01-07T15:12:20.083Z,9.20
2023-01-07T15:15:08.655Z,9.20
2023-01-07T15:17:40.443Z,9.10
2023-01-07T15:20:11.172Z,9.10
2023-01-07T15:23:04.796Z,9.10
2023-01-07T15:25:51.905Z,9.10
2023-01-07T15:28:30.927Z,9.00
2023-01-07T15:31:10.664Z,9.00
2023-01-07T15:34:04.797Z,9.00
2023-01-07T15:36:33.394Z,9.00
2023-01-07T15:39:04.623Z,8.90
2023-01-07T15:41:35.951Z,8.90
2023-01-07T15:44:13.813Z,8.90
2023-01-07T15:46:42.625Z,8.90
2023-01-07T15:49:25.652Z,8.80
2023-01-07T15:51:56.901Z,8.90
2023-01-07T15:54:32.670Z,8.90
2023-01-07T15:57:08.460Z,8.80
2023-01-07T15:59:44.444Z,8.80
2023-01-07T16:02:25.205Z,8.80
2023-01-07T16:04:56.651Z,8.80
2023-01-07T16:07:29.792Z,8.80
2023-01-07T16:09:59.197Z,8.80
2023-01-07T16:12:32.547Z,8.80
2023-01-07T16:15:04.709Z,8.80
2023-01-07T16:17:33.205Z,8.80
2023-01-07T16:20:22.398Z,8.80
2023-01-07T16:22:51.607Z,8.80
2023-01-07T16:25:34.421Z,8.80
2023-01-07T16:28:03.384Z,8.80
2023-01-07T16:30:34.292Z,8.70
2023-01-07T16:33:03.023Z,8.80
2023-01-07T16:35:35.294Z,8.80
2023-01-07T16:38:04.064Z,8.80
2023-01-07T16:40:37.728Z,8.80
2023-01-07T16:43:26.877Z,8.80
2023-01-07T16:46:17.134Z,8.80
2023-01-07T16:48:45.481Z,8.80
2023-01-07T16:51:37.785Z,8.80
2023-01-07T16:54:30.171Z,8.80
2023-01-07T16:57:00.425Z,8.80
2023-01-07T16:59:32.883Z,8.80
2023-01-07T17:02:18.400Z,8.80
2023-01-07T17:04:47.791Z,8.80
2023-01-07T17:07:23.058Z,8.80
2023-01-07T17:09:54.434Z,8.80
2023-01-07T17:12:30.773Z,8.80
2023-01-07T17:14:58.956Z,8.80
2023-01-07T17:17:33.021Z,8.80
2023-01-07T17:20:18.910Z,8.80
2023-01-07T17:22:49.487Z,8.80
2023-01-07T17:25:25.404Z,8.80
2023-01-07T17:27:58.651Z,8.80
2023-01-07T17:30:34.196Z,8.80
2023-01-07T17:33:04.490Z,8.80
2023-01-07T17:35:32.507Z,8.70
2023-01-07T17:38:00.399Z,8.80
2023-01-07T17:40:28.381Z,8.70
2023-01-07T17:43:14.746Z,8.70
2023-01-07T17:45:42.643Z,8.70
2023-01-07T17:48:14.756Z,8.70
2023-01-07T17:50:44.611Z,8.80
2023-01-07T17:53:24.413Z,8.70
2023-01-07T17:55:52.444Z,8.70
2023-01-07T17:58:30.344Z,8.60
2023-01-07T18:01:00.924Z,8.60
2023-01-07T18:03:30.317Z,8.60
2023-01-07T18:05:58.361Z,8.60
2023-01-07T18:08:26.483Z,8.60
2023-01-07T18:11:13.941Z,8.50
2023-01-07T18:13:42.314Z,8.50
2023-01-07T18:16:14.122Z,8.50
2023-01-07T18:18:43.393Z,8.50
2023-01-07T18:21:12.966Z,8.40
2023-01-07T18:23:40.894Z,8.40
2023-01-07T18:26:09.538Z,8.40
2023-01-07T18:28:37.452Z,8.30
2023-01-07T18:31:06.040Z,8.30
2023-01-07T18:33:35.356Z,8.30
2023-01-07T18:36:05.542Z,8.20
2023-01-07T18:38:33.547Z,8.20
2023-01-07T18:41:02.327Z,8.20
2023-01-07T18:43:31.268Z,8.20
2023-01-07T18:45:59.324Z,8.20
2023-01-07T18:48:27.458Z,8.20
2023-01-07T18:50:56.561Z,8.10
2023-01-07T18:53:26.660Z,8.10
2023-01-07T18:56:01.204Z,8.10
2023-01-07T18:58:29.548Z,8.00
2023-01-07T19:01:03.137Z,8.00
2023-01-07T19:03:31.210Z,8.00
2023-01-07T19:06:00.038Z,8.00
2023-01-07T19:08:29.383Z,8.00
2023-01-07T19:10:57.288Z,8.00
2023-01-07T19:13:25.322Z,8.00
2023-01-07T19:15:53.285Z,7.90
2023-01-07T19:18:21.350Z,7.90
2023-01-07T19:20:49.312Z,7.90
2023-01-07T19:23:17.237Z,7.90
2023-01-07T19:25:56.594Z,7.80
2023-01-07T19:28:24.598Z,7.80
2023-01-07T19:30:52.609Z,7.80
2023-01-07T19:33:20.612Z,7.80
2023-01-07T19:35:48.729Z,7.70
2023-01-07T19:38:17.342Z,7.70
2023-01-07T19:40:47.176Z,7.70
2023-01-07T19:43:15.155Z,7.60
2023-01-07T19:45:55.232Z,7.60
2023-01-07T19:48:24.246Z,7.60
2023-01-07T19:50:57.483Z,7.50
2023-01-07T19:53:26.461Z,7.50
2023-01-07T19:56:00.276Z,7.50
2023-01-07T19:58:28.535Z,7.50
2023-01-07T20:01:03.394Z,7.50
2023-01-07T20:03:32.809Z,7.40
2023-01-07T20:06:04.395Z,7.40
2023-01-07T20:08:32.791Z,7.40
2023-01-07T20:11:02.325Z,7.40
2023-01-07T20:13:33.671Z,7.40
2023-01-07T20:16:06.228Z,7.40
2023-01-07T20:18:39.063Z,7.40
2023-01-07T20:21:07.990Z,7.40
2023-01-07T20:23:37.277Z,7.30
2023-01-07T20:26:10.901Z,7.30
2023-01-07T20:28:39.012Z,7.30
2023-01-07T20:31:10.828Z,7.30
2023-01-07T20:33:38.895Z,7.30
2023-01-07T20:36:10.354Z,7.40
2023-01-07T20:38:39.019Z,7.40
2023-01-07T20:41:13.147Z,7.40
2023-01-07T20:43:41.226Z,7.40
2023-01-07T20:46:10.244Z,7.40
2023-01-07T20:48:38.678Z,7.40
2023-01-07T20:51:08.762Z,7.40
2023-01-07T20:53:38.078Z,7.50
2023-01-07T20:56:08.705Z,7.60
2023-01-07T20:58:38.987Z,7.60
2023-01-07T21:01:10.288Z,7.60
2023-01-07T21:03:40.467Z,7.60
2023-01-07T21:06:10.508Z,7.70
2023-01-07T21:08:38.668Z,7.70
2023-01-07T21:11:13.211Z,7.70
2023-01-07T21:13:41.365Z,7.70
2023-01-07T21:16:09.882Z,7.70
2023-01-07T21:18:38.250Z,7.70
2023-01-07T21:21:12.950Z,7.60
2023-01-07T21:23:41.758Z,7.60
2023-01-07T21:26:12.821Z,7.60
2023-01-07T21:28:41.490Z,7.60
2023-01-07T21:31:12.951Z,7.60
2023-01-07T21:33:42.043Z,7.60
2023-01-07T21:36:12.675Z,7.60
2023-01-07T21:38:40.697Z,7.60
2023-01-07T21:41:13.097Z,7.50
2023-01-07T21:43:41.531Z,7.50
2023-01-07T21:46:10.239Z,7.50
2023-01-07T21:48:40.963Z,7.50
2023-01-07T21:51:20.000Z,7.50
2023-01-07T21:53:48.280Z,7.50
2023-01-07T21:56:18.966Z,7.60
2023-01-07T21:58:47.711Z,7.60
2023-01-07T22:01:17.383Z,7.60
2023-01-07T22:03:48.490Z,7.70
2023-01-07T22:06:20.739Z,7.70
2023-01-07T22:08:49.409Z,7.70
2023-01-07T22:11:19.466Z,7.70
2023-01-07T22:13:51.801Z,7.70
2023-01-07T22:16:20.440Z,7.70
2023-01-07T22:18:48.913Z,7.70
2023-01-07T22:21:18.549Z,7.70
2023-01-07T22:23:48.309Z,7.70
2023-01-07T22:26:19.818Z,7.70
2023-01-07T22:28:53.431Z,7.60
2023-01-07T22:31:24.184Z,7.60
2023-01-07T22:33:52.743Z,7.60
2023-01-07T22:36:29.074Z,7.60
2023-01-07T22:39:01.841Z,7.60
2023-01-07T22:41:34.396Z,7.60
2023-01-07T22:44:09.351Z,7.60
2023-01-07T22:46:39.147Z,7.60
2023-01-07T22:49:07.556Z,7.60
2023-01-07T22:51:42.806Z,7.60
2023-01-07T22:54:13.695Z,7.50
2023-01-07T22:56:44.237Z,7.50
2023-01-07T22:59:12.603Z,7.50
2023-01-07T23:01:40.810Z,7.50
2023-01-07T23:04:09.255Z,7.50
2023-01-07T23:06:37.496Z,7.50
2023-01-07T23:09:05.760Z,7.50
2023-01-07T23:11:49.040Z,7.40
2023-01-07T23:14:20.538Z,7.40
2023-01-07T23:16:49.793Z,7.40
2023-01-07T23:19:18.547Z,7.40
2023-01-07T23:21:51.266Z,7.40
2023-01-07T23:24:19.943Z,7.40
2023-01-07T23:26:49.795Z,7.40
2023-01-07T23:29:19.874Z,7.40
2023-01-07T23:31:47.854Z,7.30
2023-01-07T23:34:16.928Z,7.30
2023-01-07T23:36:45.206Z,7.30
2023-01-07T23:39:13.438Z,7.20
2023-01-07T23:41:41.449Z,7.20
2023-01-07T23:44:09.379Z,7.20
2023-01-07T23:46:38.738Z,7.20
2023-01-07T23:49:06.691Z,7.20
2023-01-07T23:51:34.579Z,7.20
2023-01-07T23:54:02.519Z,7.10
2023-01-07T23:56:30.502Z,7.10
2023-01-07T23:58:58.443Z,7.10
